sensor_id;sensor_type;location;lat;lon;timestamp;pressure;altitude;pressure_sealevel;temperature;humidity
71559;BME280;59382;43.852;25.952;2024-03-02T00:02:12;100994.63;;;10.58;65.37
71559;BME280;59382;43.852;25.952;2024-03-02T00:04:38;100995.66;;;10.63;65.26
71559;BME280;59382;43.852;25.952;2024-03-02T00:07:04;101006.91;;;10.67;65.35
71559;BME280;59382;43.852;25.952;2024-03-02T00:09:29;100996.91;;;10.61;65.14
71559;BME280;59382;43.852;25.952;2024-03-02T00:11:55;100971.75;;;10.54;65.15
71559;BME280;59382;43.852;25.952;2024-03-02T00:14:22;100957.84;;;10.44;65.72
71559;BME280;59382;43.852;25.952;2024-03-02T00:16:49;100984.66;;;10.52;65.52
71559;BME280;59382;43.852;25.952;2024-03-02T00:19:16;101006.44;;;10.57;65.87
71559;BME280;59382;43.852;25.952;2024-03-02T00:21:42;101006.25;;;10.52;66.04
71559;BME280;59382;43.852;25.952;2024-03-02T00:24:18;100999.16;;;10.51;65.95
71559;BME280;59382;43.852;25.952;2024-03-02T00:26:45;100976.09;;;10.42;66.04
71559;BME280;59382;43.852;25.952;2024-03-02T00:29:16;100983.56;;;10.46;65.79
71559;BME280;59382;43.852;25.952;2024-03-02T00:31:43;100994.56;;;10.45;66.21
71559;BME280;59382;43.852;25.952;2024-03-02T00:34:12;100985.88;;;10.43;66.11
71559;BME280;59382;43.852;25.952;2024-03-02T00:36:39;100974.84;;;10.38;66.21
71559;BME280;59382;43.852;25.952;2024-03-02T00:39:05;100976.72;;;10.44;66.26
71559;BME280;59382;43.852;25.952;2024-03-02T00:41:33;100972.13;;;10.31;66.04
71559;BME280;59382;43.852;25.952;2024-03-02T00:44:01;100975.03;;;10.30;66.21
71559;BME280;59382;43.852;25.952;2024-03-02T00:46:36;100978.34;;;10.32;66.73
71559;BME280;59382;43.852;25.952;2024-03-02T00:49:03;100980.41;;;10.23;66.76
71559;BME280;59382;43.852;25.952;2024-03-02T00:51:31;100986.22;;;10.20;66.97
71559;BME280;59382;43.852;25.952;2024-03-02T00:54:02;100943.03;;;10.14;67.05
71559;BME280;59382;43.852;25.952;2024-03-02T00:56:30;100957.41;;;10.21;66.97
71559;BME280;59382;43.852;25.952;2024-03-02T00:58:56;100955.09;;;10.18;67.21
71559;BME280;59382;43.852;25.952;2024-03-02T01:01:22;100940.13;;;10.09;67.44
71559;BME280;59382;43.852;25.952;2024-03-02T01:03:52;100963.00;;;10.19;67.01
71559;BME280;59382;43.852;25.952;2024-03-02T01:06:18;100947.19;;;10.10;67.56
71559;BME280;59382;43.852;25.952;2024-03-02T01:08:44;100976.69;;;10.18;67.43
71559;BME280;59382;43.852;25.952;2024-03-02T01:11:10;100917.84;;;9.93;67.21
71559;BME280;59382;43.852;25.952;2024-03-02T01:13:36;100939.50;;;10.07;67.29
71559;BME280;59382;43.852;25.952;2024-03-02T01:16:02;100972.50;;;10.09;67.44
71559;BME280;59382;43.852;25.952;2024-03-02T01:18:28;100966.25;;;10.08;67.53
71559;BME280;59382;43.852;25.952;2024-03-02T01:20:54;100955.41;;;10.01;67.93
71559;BME280;59382;43.852;25.952;2024-03-02T01:23:25;100925.31;;;9.91;67.75
71559;BME280;59382;43.852;25.952;2024-03-02T01:25:51;100933.00;;;9.94;68.10
71559;BME280;59382;43.852;25.952;2024-03-02T01:28:18;100918.88;;;9.92;68.25
71559;BME280;59382;43.852;25.952;2024-03-02T01:30:45;100943.41;;;10.04;67.96
71559;BME280;59382;43.852;25.952;2024-03-02T01:33:11;100944.63;;;10.01;68.01
71559;BME280;59382;43.852;25.952;2024-03-02T01:35:37;100957.97;;;10.10;68.08
71559;BME280;59382;43.852;25.952;2024-03-02T01:38:03;100934.25;;;9.98;68.17
71559;BME280;59382;43.852;25.952;2024-03-02T01:40:29;100935.13;;;10.06;68.06
71559;BME280;59382;43.852;25.952;2024-03-02T01:42:54;100915.78;;;9.95;68.15
71559;BME280;59382;43.852;25.952;2024-03-02T01:45:21;100928.66;;;10.00;68.41
71559;BME280;59382;43.852;25.952;2024-03-02T01:47:47;100950.00;;;10.01;68.04
71559;BME280;59382;43.852;25.952;2024-03-02T01:50:13;100940.91;;;10.02;68.09
71559;BME280;59382;43.852;25.952;2024-03-02T01:52:39;100934.69;;;10.02;68.11
71559;BME280;59382;43.852;25.952;2024-03-02T01:55:05;100926.38;;;10.03;68.16
71559;BME280;59382;43.852;25.952;2024-03-02T01:57:32;100918.72;;;10.00;68.19
71559;BME280;59382;43.852;25.952;2024-03-02T01:59:57;100927.22;;;10.04;68.15
71559;BME280;59382;43.852;25.952;2024-03-02T02:02:23;100918.47;;;9.95;68.28
71559;BME280;59382;43.852;25.952;2024-03-02T02:04:49;100922.22;;;9.94;67.95
71559;BME280;59382;43.852;25.952;2024-03-02T02:07:14;100931.78;;;10.03;68.37
71559;BME280;59382;43.852;25.952;2024-03-02T02:09:43;100923.06;;;9.95;68.25
71559;BME280;59382;43.852;25.952;2024-03-02T02:12:12;100919.28;;;9.89;68.41
71559;BME280;59382;43.852;25.952;2024-03-02T02:14:37;100891.06;;;9.79;68.30
71559;BME280;59382;43.852;25.952;2024-03-02T02:17:05;100909.53;;;9.88;68.25
71559;BME280;59382;43.852;25.952;2024-03-02T02:19:30;100905.78;;;9.83;68.28
71559;BME280;59382;43.852;25.952;2024-03-02T02:21:56;100931.75;;;9.90;68.63
71559;BME280;59382;43.852;25.952;2024-03-02T02:24:21;100923.84;;;9.89;68.34
71559;BME280;59382;43.852;25.952;2024-03-02T02:26:47;100917.63;;;9.88;68.56
71559;BME280;59382;43.852;25.952;2024-03-02T02:29:12;100916.38;;;9.84;68.46
71559;BME280;59382;43.852;25.952;2024-03-02T02:31:39;100918.03;;;9.85;68.42
71559;BME280;59382;43.852;25.952;2024-03-02T02:34:05;100906.41;;;9.85;68.58
71559;BME280;59382;43.852;25.952;2024-03-02T02:36:32;100932.53;;;9.84;68.71
71559;BME280;59382;43.852;25.952;2024-03-02T02:39:02;100930.66;;;9.78;68.73
71559;BME280;59382;43.852;25.952;2024-03-02T02:41:29;100930.66;;;9.78;68.75
71559;BME280;59382;43.852;25.952;2024-03-02T02:43:55;100922.13;;;9.75;69.07
71559;BME280;59382;43.852;25.952;2024-03-02T02:46:20;100927.56;;;9.81;68.91
71559;BME280;59382;43.852;25.952;2024-03-02T02:48:46;100909.06;;;9.72;69.20
71559;BME280;59382;43.852;25.952;2024-03-02T02:51:12;100871.50;;;9.57;68.77
71559;BME280;59382;43.852;25.952;2024-03-02T02:53:37;100912.00;;;9.83;68.96
71559;BME280;59382;43.852;25.952;2024-03-02T02:56:06;100909.28;;;9.77;68.73
71559;BME280;59382;43.852;25.952;2024-03-02T02:58:31;100923.41;;;9.79;68.48
71559;BME280;59382;43.852;25.952;2024-03-02T03:00:57;100913.84;;;9.76;68.97
71559;BME280;59382;43.852;25.952;2024-03-02T03:03:22;100930.47;;;9.86;69.00
71559;BME280;59382;43.852;25.952;2024-03-02T03:05:48;100928.38;;;9.82;69.10
71559;BME280;59382;43.852;25.952;2024-03-02T03:08:14;100930.66;;;9.78;69.12
71559;BME280;59382;43.852;25.952;2024-03-02T03:10:41;100940.84;;;9.89;68.79
71559;BME280;59382;43.852;25.952;2024-03-02T03:13:07;100923.19;;;9.80;69.08
71559;BME280;59382;43.852;25.952;2024-03-02T03:15:34;100935.84;;;9.86;69.26
71559;BME280;59382;43.852;25.952;2024-03-02T03:18:02;100937.28;;;9.82;69.30
71559;BME280;59382;43.852;25.952;2024-03-02T03:20:29;100928.81;;;9.85;69.16
71559;BME280;59382;43.852;25.952;2024-03-02T03:22:55;100948.53;;;9.92;69.24
71559;BME280;59382;43.852;25.952;2024-03-02T03:25:23;100924.25;;;9.86;68.56
71559;BME280;59382;43.852;25.952;2024-03-02T03:27:49;100907.25;;;9.85;68.88
71559;BME280;59382;43.852;25.952;2024-03-02T03:30:14;100915.97;;;9.87;69.00
71559;BME280;59382;43.852;25.952;2024-03-02T03:32:40;100915.16;;;9.93;69.29
71559;BME280;59382;43.852;25.952;2024-03-02T03:35:06;100909.31;;;9.83;69.28
71559;BME280;59382;43.852;25.952;2024-03-02T03:37:32;100913.47;;;9.92;69.06
71559;BME280;59382;43.852;25.952;2024-03-02T03:40:07;100928.44;;;9.95;69.17
71559;BME280;59382;43.852;25.952;2024-03-02T03:42:36;100908.50;;;9.89;69.31
71559;BME280;59382;43.852;25.952;2024-03-02T03:45:03;100927.84;;;9.99;68.98
71559;BME280;59382;43.852;25.952;2024-03-02T03:47:28;100928.44;;;10.01;68.89
71559;BME280;59382;43.852;25.952;2024-03-02T03:49:54;100921.78;;;9.91;69.37
71559;BME280;59382;43.852;25.952;2024-03-02T03:52:19;100920.56;;;9.93;69.24
71559;BME280;59382;43.852;25.952;2024-03-02T03:54:46;100937.81;;;10.06;68.95
71559;BME280;59382;43.852;25.952;2024-03-02T03:57:11;100935.13;;;10.06;69.15
71559;BME280;59382;43.852;25.952;2024-03-02T03:59:37;100925.94;;;10.00;68.99
71559;BME280;59382;43.852;25.952;2024-03-02T04:02:05;100946.78;;;10.13;68.97
71559;BME280;59382;43.852;25.952;2024-03-02T04:04:34;100950.13;;;10.15;68.99
71559;BME280;59382;43.852;25.952;2024-03-02T04:07:00;100948.03;;;10.17;68.83
71559;BME280;59382;43.852;25.952;2024-03-02T04:09:26;100951.38;;;10.19;68.99
71559;BME280;59382;43.852;25.952;2024-03-02T04:11:51;100950.13;;;10.21;68.79
71559;BME280;59382;43.852;25.952;2024-03-02T04:14:17;100943.06;;;10.20;69.17
71559;BME280;59382;43.852;25.952;2024-03-02T04:16:43;100931.00;;;10.10;69.15
71559;BME280;59382;43.852;25.952;2024-03-02T04:19:09;100938.28;;;10.16;68.82
71559;BME280;59382;43.852;25.952;2024-03-02T04:21:35;100935.59;;;10.16;69.14
71559;BME280;59382;43.852;25.952;2024-03-02T04:24:01;100926.84;;;10.07;68.75
71559;BME280;59382;43.852;25.952;2024-03-02T04:26:27;100924.78;;;10.16;69.16
71559;BME280;59382;43.852;25.952;2024-03-02T04:28:52;100928.94;;;10.12;68.89
71559;BME280;59382;43.852;25.952;2024-03-02T04:31:19;100906.47;;;10.04;68.78
71559;BME280;59382;43.852;25.952;2024-03-02T04:33:45;100945.56;;;10.22;68.60
71559;BME280;59382;43.852;25.952;2024-03-02T04:36:11;100953.84;;;10.20;68.94
71559;BME280;59382;43.852;25.952;2024-03-02T04:38:37;100927.63;;;10.01;68.94
71559;BME280;59382;43.852;25.952;2024-03-02T04:41:04;100941.78;;;10.10;68.93
71559;BME280;59382;43.852;25.952;2024-03-02T04:43:31;100940.56;;;10.19;69.01
71559;BME280;59382;43.852;25.952;2024-03-02T04:45:58;100955.53;;;10.28;68.46
71559;BME280;59382;43.852;25.952;2024-03-02T04:48:23;100968.63;;;10.31;68.39
71559;BME280;59382;43.852;25.952;2024-03-02T04:50:49;100941.81;;;10.23;68.82
71559;BME280;59382;43.852;25.952;2024-03-02T04:53:14;100964.47;;;10.35;68.62
71559;BME280;59382;43.852;25.952;2024-03-02T04:55:40;100964.25;;;10.36;68.43
71559;BME280;59382;43.852;25.952;2024-03-02T04:58:05;100957.00;;;10.37;68.36
71559;BME280;59382;43.852;25.952;2024-03-02T05:00:32;100939.97;;;10.30;68.22
71559;BME280;59382;43.852;25.952;2024-03-02T05:02:58;100937.25;;;10.30;68.19
71559;BME280;59382;43.852;25.952;2024-03-02T05:05:23;100964.47;;;10.35;68.08
71559;BME280;59382;43.852;25.952;2024-03-02T05:07:49;100975.91;;;10.37;68.56
71559;BME280;59382;43.852;25.952;2024-03-02T05:10:14;100967.81;;;10.37;68.54
71559;BME280;59382;43.852;25.952;2024-03-02T05:12:41;100946.00;;;10.32;68.17
71559;BME280;59382;43.852;25.952;2024-03-02T05:15:13;100921.09;;;10.30;68.32
71559;BME280;59382;43.852;25.952;2024-03-02T05:17:40;100945.63;;;10.41;68.26
71559;BME280;59382;43.852;25.952;2024-03-02T05:20:06;100945.19;;;10.38;67.80
71559;BME280;59382;43.852;25.952;2024-03-02T05:22:33;100978.38;;;10.45;68.14
71559;BME280;59382;43.852;25.952;2024-03-02T05:25:00;100965.31;;;10.35;67.94
71559;BME280;59382;43.852;25.952;2024-03-02T05:27:26;100975.06;;;10.49;68.27
71559;BME280;59382;43.852;25.952;2024-03-02T05:29:52;100970.53;;;10.50;67.93
71559;BME280;59382;43.852;25.952;2024-03-02T05:32:17;100973.84;;;10.52;67.75
71559;BME280;59382;43.852;25.952;2024-03-02T05:34:43;100961.38;;;10.44;67.50
71559;BME280;59382;43.852;25.952;2024-03-02T05:37:09;100964.91;;;10.45;67.62
71559;BME280;59382;43.852;25.952;2024-03-02T05:39:34;100974.47;;;10.47;68.02
71559;BME280;59382;43.852;25.952;2024-03-02T05:42:00;100981.75;;;10.60;67.56
71559;BME280;59382;43.852;25.952;2024-03-02T05:44:25;100972.00;;;10.59;67.81
71559;BME280;59382;43.852;25.952;2024-03-02T05:46:50;100984.25;;;10.68;67.26
71559;BME280;59382;43.852;25.952;2024-03-02T05:49:16;100969.94;;;10.61;67.26
71559;BME280;59382;43.852;25.952;2024-03-02T05:51:42;100986.53;;;10.58;67.66
71559;BME280;59382;43.852;25.952;2024-03-02T05:54:07;100990.25;;;10.57;67.54
71559;BME280;59382;43.852;25.952;2024-03-02T05:56:33;100976.31;;;10.47;67.33
71559;BME280;59382;43.852;25.952;2024-03-02T05:58:58;100984.66;;;10.52;67.48
71559;BME280;59382;43.852;25.952;2024-03-02T06:01:42;100983.84;;;10.58;67.56
71559;BME280;59382;43.852;25.952;2024-03-02T06:04:09;100963.47;;;10.49;67.29
71559;BME280;59382;43.852;25.952;2024-03-02T06:06:36;100963.47;;;10.55;67.50
71559;BME280;59382;43.852;25.952;2024-03-02T06:09:03;100977.41;;;10.59;67.75
71559;BME280;59382;43.852;25.952;2024-03-02T06:11:39;100967.41;;;10.53;67.29
71559;BME280;59382;43.852;25.952;2024-03-02T06:14:07;100986.72;;;10.63;67.15
71559;BME280;59382;43.852;25.952;2024-03-02T06:16:33;100985.06;;;10.62;67.69
71559;BME280;59382;43.852;25.952;2024-03-02T06:18:59;100962.66;;;10.55;67.64
71559;BME280;59382;43.852;25.952;2024-03-02T06:21:25;100984.03;;;10.63;67.38
71559;BME280;59382;43.852;25.952;2024-03-02T06:23:51;100986.31;;;10.66;67.24
71559;BME280;59382;43.852;25.952;2024-03-02T06:26:17;100962.25;;;10.58;67.41
71559;BME280;59382;43.852;25.952;2024-03-02T06:28:43;100979.28;;;10.65;67.22
71559;BME280;59382;43.852;25.952;2024-03-02T06:31:09;100970.53;;;10.63;67.17
71559;BME280;59382;43.852;25.952;2024-03-02T06:33:35;100968.66;;;10.57;66.97
71559;BME280;59382;43.852;25.952;2024-03-02T06:36:01;100969.09;;;10.60;67.10
71559;BME280;59382;43.852;25.952;2024-03-02T06:38:26;100955.97;;;10.51;67.40
71559;BME280;59382;43.852;25.952;2024-03-02T06:40:52;100947.47;;;10.54;66.78
71559;BME280;59382;43.852;25.952;2024-03-02T06:43:17;100945.63;;;10.54;66.85
71559;BME280;59382;43.852;25.952;2024-03-02T06:45:43;100955.56;;;10.54;66.68
71559;BME280;59382;43.852;25.952;2024-03-02T06:48:08;100957.44;;;10.47;66.77
71559;BME280;59382;43.852;25.952;2024-03-02T06:50:34;100987.16;;;10.53;66.89
71559;BME280;59382;43.852;25.952;2024-03-02T06:53:00;100979.63;;;10.42;67.15
71559;BME280;59382;43.852;25.952;2024-03-02T06:55:25;100996.25;;;10.52;66.84
71559;BME280;59382;43.852;25.952;2024-03-02T06:57:51;100976.31;;;10.47;67.17
71559;BME280;59382;43.852;25.952;2024-03-02T07:00:17;101004.59;;;10.57;66.77
71559;BME280;59382;43.852;25.952;2024-03-02T07:02:44;100998.16;;;10.65;66.31
71559;BME280;59382;43.852;25.952;2024-03-02T07:05:10;101019.13;;;10.63;66.77
71559;BME280;59382;43.852;25.952;2024-03-02T07:07:36;101015.41;;;10.64;66.21
71559;BME280;59382;43.852;25.952;2024-03-02T07:10:06;100966.34;;;10.41;66.43
71559;BME280;59382;43.852;25.952;2024-03-02T07:12:34;101001.91;;;10.64;66.20
71559;BME280;59382;43.852;25.952;2024-03-02T07:15:00;101003.34;;;10.60;66.51
71559;BME280;59382;43.852;25.952;2024-03-02T07:17:29;101011.66;;;10.65;66.19
71559;BME280;59382;43.852;25.952;2024-03-02T07:19:54;101011.25;;;10.68;66.49
71559;BME280;59382;43.852;25.952;2024-03-02T07:22:20;101007.94;;;10.72;66.21
71559;BME280;59382;43.852;25.952;2024-03-02T07:24:46;100991.94;;;10.71;66.30
71559;BME280;59382;43.852;25.952;2024-03-02T07:27:13;100966.19;;;10.75;65.84
71559;BME280;59382;43.852;25.952;2024-03-02T07:29:39;100975.94;;;10.76;65.46
71559;BME280;59382;43.852;25.952;2024-03-02T07:32:05;100994.25;;;10.87;65.71
71559;BME280;59382;43.852;25.952;2024-03-02T07:34:31;100983.44;;;10.87;65.40
71559;BME280;59382;43.852;25.952;2024-03-02T07:36:57;100974.28;;;10.88;65.51
71559;BME280;59382;43.852;25.952;2024-03-02T07:39:23;100973.69;;;10.92;65.33
71559;BME280;59382;43.852;25.952;2024-03-02T07:41:48;100968.06;;;10.94;65.16
71559;BME280;59382;43.852;25.952;2024-03-02T07:44:14;100952.50;;;10.89;65.10
71559;BME280;59382;43.852;25.952;2024-03-02T07:46:41;100950.84;;;10.95;65.00
71559;BME280;59382;43.852;25.952;2024-03-02T07:49:07;100972.44;;;11.08;64.78
71559;BME280;59382;43.852;25.952;2024-03-02T07:51:33;100968.47;;;11.10;65.04
71559;BME280;59382;43.852;25.952;2024-03-02T07:53:58;100969.53;;;11.09;64.94
71559;BME280;59382;43.852;25.952;2024-03-02T07:56:24;100963.72;;;11.06;65.13
71559;BME280;59382;43.852;25.952;2024-03-02T07:58:50;100962.03;;;11.18;64.72
71559;BME280;59382;43.852;25.952;2024-03-02T08:01:15;100960.38;;;11.17;64.48
71559;BME280;59382;43.852;25.952;2024-03-02T08:03:43;100983.41;;;11.32;64.40
71559;BME280;59382;43.852;25.952;2024-03-02T08:06:13;100969.72;;;11.34;64.71
71559;BME280;59382;43.852;25.952;2024-03-02T08:08:40;100971.38;;;11.35;64.13
71559;BME280;59382;43.852;25.952;2024-03-02T08:11:06;100959.09;;;11.32;64.19
71559;BME280;59382;43.852;25.952;2024-03-02T08:13:31;100971.81;;;11.32;63.92
71559;BME280;59382;43.852;25.952;2024-03-02T08:15:57;100972.41;;;11.40;64.15
71559;BME280;59382;43.852;25.952;2024-03-02T08:18:23;100952.91;;;11.32;63.94
71559;BME280;59382;43.852;25.952;2024-03-02T08:20:49;100969.91;;;11.39;63.68
71559;BME280;59382;43.852;25.952;2024-03-02T08:23:14;100974.69;;;11.37;63.95
71559;BME280;59382;43.852;25.952;2024-03-02T08:25:40;100974.28;;;11.40;64.11
71559;BME280;59382;43.852;25.952;2024-03-02T08:28:05;100972.63;;;11.39;63.84
71559;BME280;59382;43.852;25.952;2024-03-02T08:30:31;100967.41;;;11.37;63.89
71559;BME280;59382;43.852;25.952;2024-03-02T08:32:57;100966.78;;;11.42;63.81
71559;BME280;59382;43.852;25.952;2024-03-02T08:35:22;100978.41;;;11.49;63.84
71559;BME280;59382;43.852;25.952;2024-03-02T08:37:48;100985.88;;;11.60;63.49
71559;BME280;59382;43.852;25.952;2024-03-02T08:40:14;100963.88;;;11.50;63.38
71559;BME280;59382;43.852;25.952;2024-03-02T08:42:40;100971.94;;;11.69;63.06
71559;BME280;59382;43.852;25.952;2024-03-02T08:45:07;100970.28;;;11.68;63.01
71559;BME280;59382;43.852;25.952;2024-03-02T08:47:33;100971.72;;;11.71;63.06
71559;BME280;59382;43.852;25.952;2024-03-02T08:49:59;100967.59;;;11.75;62.79
71559;BME280;59382;43.852;25.952;2024-03-02T08:52:25;100962.59;;;11.72;62.59
71559;BME280;59382;43.852;25.952;2024-03-02T08:54:51;100953.84;;;11.76;62.65
71559;BME280;59382;43.852;25.952;2024-03-02T08:57:17;100960.44;;;11.93;63.07
71559;BME280;59382;43.852;25.952;2024-03-02T08:59:42;100957.91;;;12.05;62.21
71559;BME280;59382;43.852;25.952;2024-03-02T09:02:09;100955.38;;;12.10;62.43
71559;BME280;59382;43.852;25.952;2024-03-02T09:04:35;100939.56;;;12.07;62.13
71559;BME280;59382;43.852;25.952;2024-03-02T09:07:00;100952.59;;;12.23;62.00
71559;BME280;59382;43.852;25.952;2024-03-02T09:09:29;100936.19;;;12.18;62.00
71559;BME280;59382;43.852;25.952;2024-03-02T09:11:54;100952.16;;;12.26;61.73
71559;BME280;59382;43.852;25.952;2024-03-02T09:14:21;100945.72;;;12.27;62.18
71559;BME280;59382;43.852;25.952;2024-03-02T09:16:46;100944.03;;;12.26;61.98
71559;BME280;59382;43.852;25.952;2024-03-02T09:19:12;100954.41;;;12.36;61.87
71559;BME280;59382;43.852;25.952;2024-03-02T09:21:38;100954.63;;;12.34;61.93
71559;BME280;59382;43.852;25.952;2024-03-02T09:24:03;100942.75;;;12.35;61.81
71559;BME280;59382;43.852;25.952;2024-03-02T09:26:29;100952.69;;;12.41;61.50
71559;BME280;59382;43.852;25.952;2024-03-02T09:28:55;100967.28;;;12.40;61.26
71559;BME280;59382;43.852;25.952;2024-03-02T09:31:20;100954.44;;;12.29;61.57
71559;BME280;59382;43.852;25.952;2024-03-02T09:33:46;100958.94;;;12.42;61.22
71559;BME280;59382;43.852;25.952;2024-03-02T09:36:22;100966.41;;;12.46;61.72
71559;BME280;59382;43.852;25.952;2024-03-02T09:38:48;100966.94;;;12.61;61.43
71559;BME280;59382;43.852;25.952;2024-03-02T09:41:17;100958.31;;;12.71;60.85
71559;BME280;59382;43.852;25.952;2024-03-02T09:43:42;100963.25;;;12.80;60.70
71559;BME280;59382;43.852;25.952;2024-03-02T09:46:09;100963.59;;;12.90;60.94
71559;BME280;59382;43.852;25.952;2024-03-02T09:48:35;100975.44;;;12.96;60.53
71559;BME280;59382;43.852;25.952;2024-03-02T09:51:01;100969.81;;;12.97;60.52
71559;BME280;59382;43.852;25.952;2024-03-02T09:53:31;100951.56;;;12.86;60.08
71559;BME280;59382;43.852;25.952;2024-03-02T09:56:01;100961.94;;;12.89;60.43
71559;BME280;59382;43.852;25.952;2024-03-02T09:58:27;100965.41;;;12.96;60.29
71559;BME280;59382;43.852;25.952;2024-03-02T10:00:53;100966.03;;;12.98;60.17
71559;BME280;59382;43.852;25.952;2024-03-02T10:03:19;100956.28;;;12.97;60.08
71559;BME280;59382;43.852;25.952;2024-03-02T10:05:45;100979.34;;;13.06;59.68
71559;BME280;59382;43.852;25.952;2024-03-02T10:08:10;100959.78;;;13.04;59.82
71559;BME280;59382;43.852;25.952;2024-03-02T10:10:36;100966.41;;;13.08;59.83
71559;BME280;59382;43.852;25.952;2024-03-02T10:13:08;100962.63;;;13.09;59.72
71559;BME280;59382;43.852;25.952;2024-03-02T10:15:35;100965.19;;;13.04;59.20
71559;BME280;59382;43.852;25.952;2024-03-02T10:18:05;100962.72;;;12.96;59.81
71559;BME280;59382;43.852;25.952;2024-03-02T10:20:33;100964.00;;;13.00;59.51
71559;BME280;59382;43.852;25.952;2024-03-02T10:23:15;100945.25;;;12.92;59.54
71559;BME280;59382;43.852;25.952;2024-03-02T10:25:43;100959.41;;;12.94;59.69
71559;BME280;59382;43.852;25.952;2024-03-02T10:28:09;100956.44;;;13.02;59.44
71559;BME280;59382;43.852;25.952;2024-03-02T10:30:35;100955.41;;;13.03;59.69
71559;BME280;59382;43.852;25.952;2024-03-02T10:33:02;100962.19;;;13.12;59.56
71559;BME280;59382;43.852;25.952;2024-03-02T10:35:28;100963.25;;;13.11;59.53
71559;BME280;59382;43.852;25.952;2024-03-02T10:37:54;100965.50;;;13.14;59.25
71559;BME280;59382;43.852;25.952;2024-03-02T10:40:23;100952.59;;;13.16;59.22
71559;BME280;59382;43.852;25.952;2024-03-02T10:42:50;100955.28;;;13.16;59.02
71559;BME280;59382;43.852;25.952;2024-03-02T10:45:16;100955.56;;;13.08;59.08
71559;BME280;59382;43.852;25.952;2024-03-02T10:47:43;100938.03;;;13.11;58.96
71559;BME280;59382;43.852;25.952;2024-03-02T10:50:11;100948.06;;;13.10;59.18
71559;BME280;59382;43.852;25.952;2024-03-02T10:52:37;100955.44;;;13.21;58.79
71559;BME280;59382;43.852;25.952;2024-03-02T10:55:05;100946.28;;;13.22;59.07
71559;BME280;59382;43.852;25.952;2024-03-02T10:57:53;100957.88;;;13.29;59.06
71559;BME280;59382;43.852;25.952;2024-03-02T11:00:20;100946.41;;;13.27;58.84
71559;BME280;59382;43.852;25.952;2024-03-02T11:03:02;100939.19;;;13.21;58.78
71559;BME280;59382;43.852;25.952;2024-03-02T11:05:36;100920.97;;;13.10;59.08
71559;BME280;59382;43.852;25.952;2024-03-02T11:08:08;100923.81;;;13.15;59.15
71559;BME280;59382;43.852;25.952;2024-03-02T11:10:41;100931.66;;;13.23;58.92
71559;BME280;59382;43.852;25.952;2024-03-02T11:13:12;100951.25;;;13.25;58.70
71559;BME280;59382;43.852;25.952;2024-03-02T11:15:40;100917.19;;;13.11;58.66
71559;BME280;59382;43.852;25.952;2024-03-02T11:18:06;100923.50;;;13.05;58.89
71559;BME280;59382;43.852;25.952;2024-03-02T11:20:37;100933.44;;;13.11;58.94
71559;BME280;59382;43.852;25.952;2024-03-02T11:23:07;100938.03;;;13.11;59.18
71559;BME280;59382;43.852;25.952;2024-03-02T11:25:34;100905.16;;;13.07;58.85
71559;BME280;59382;43.852;25.952;2024-03-02T11:28:03;100927.59;;;13.14;59.09
71559;BME280;59382;43.852;25.952;2024-03-02T11:33:05;100922.59;;;13.11;59.21
71559;BME280;59382;43.852;25.952;2024-03-02T11:38:01;100918.69;;;13.07;59.00
71559;BME280;59382;43.852;25.952;2024-03-02T11:40:29;100919.28;;;13.09;59.15
71559;BME280;59382;43.852;25.952;2024-03-02T11:42:55;100911.00;;;13.04;59.10
71559;BME280;59382;43.852;25.952;2024-03-02T11:45:25;100919.69;;;13.13;59.29
71559;BME280;59382;43.852;25.952;2024-03-02T11:47:54;100895.59;;;13.05;59.02
71559;BME280;59382;43.852;25.952;2024-03-02T11:50:57;100912.97;;;13.15;59.01
71559;BME280;59382;43.852;25.952;2024-03-02T11:53:23;100923.81;;;13.15;59.01
71559;BME280;59382;43.852;25.952;2024-03-02T11:55:49;100906.97;;;13.13;59.19
71559;BME280;59382;43.852;25.952;2024-03-02T11:58:16;100896.41;;;13.05;59.02
71559;BME280;59382;43.852;25.952;2024-03-02T12:00:55;100898.84;;;13.13;59.06
71559;BME280;59382;43.852;25.952;2024-03-02T12:03:25;100896.63;;;13.04;58.74
71559;BME280;59382;43.852;25.952;2024-03-02T12:05:53;100888.72;;;13.02;59.06
71559;BME280;59382;43.852;25.952;2024-03-02T12:08:19;100902.00;;;13.10;59.11
71559;BME280;59382;43.852;25.952;2024-03-02T12:10:56;100895.50;;;13.11;58.80
71559;BME280;59382;43.852;25.952;2024-03-02T12:13:22;100895.50;;;13.11;59.12
71559;BME280;59382;43.852;25.952;2024-03-02T12:15:48;100882.88;;;13.05;59.14
71559;BME280;59382;43.852;25.952;2024-03-02T12:18:17;100881.75;;;13.13;58.98
71559;BME280;59382;43.852;25.952;2024-03-02T12:20:44;100886.78;;;13.09;59.06
71559;BME280;59382;43.852;25.952;2024-03-02T12:23:09;100907.09;;;13.18;58.90
71559;BME280;59382;43.852;25.952;2024-03-02T12:25:35;100896.72;;;13.15;58.91
71559;BME280;59382;43.852;25.952;2024-03-02T12:28:01;100890.25;;;13.16;58.81
71559;BME280;59382;43.852;25.952;2024-03-02T12:30:29;100884.69;;;13.11;58.89
71559;BME280;59382;43.852;25.952;2024-03-02T12:32:56;100891.28;;;13.15;59.04
71559;BME280;59382;43.852;25.952;2024-03-02T12:35:21;100904.56;;;13.23;58.62
71559;BME280;59382;43.852;25.952;2024-03-02T12:37:48;100890.78;;;13.25;58.67
71559;BME280;59382;43.852;25.952;2024-03-02T12:40:16;100890.41;;;13.21;58.60
71559;BME280;59382;43.852;25.952;2024-03-02T12:42:44;100872.34;;;13.15;58.71
71559;BME280;59382;43.852;25.952;2024-03-02T12:45:10;100890.56;;;13.26;58.41